createdAt,value
2023-06-30T00:02:02.367Z,20.90
2023-06-30T00:04:31.561Z,20.85
2023-06-30T00:06:59.428Z,20.77
2023-06-30T00:09:29.377Z,20.77
2023-06-30T00:11:57.186Z,20.77
2023-06-30T00:14:25.192Z,20.80
2023-06-30T00:16:53.045Z,20.77
2023-06-30T00:19:21.436Z,20.77
2023-06-30T00:21:49.490Z,20.77
2023-06-30T00:24:19.235Z,20.78
2023-06-30T00:26:48.893Z,20.78
2023-06-30T00:29:16.683Z,20.78
2023-06-30T00:31:44.479Z,20.68
2023-06-30T00:34:12.234Z,20.67
2023-06-30T00:36:39.950Z,20.64
2023-06-30T00:39:07.726Z,20.62
2023-06-30T00:41:35.545Z,20.58
2023-06-30T00:44:04.778Z,20.54
2023-06-30T00:46:32.530Z,20.51
2023-06-30T00:49:00.405Z,20.52
2023-06-30T00:51:28.100Z,20.49
2023-06-30T00:53:57.222Z,20.45
2023-06-30T00:56:27.369Z,20.46
2023-06-30T00:58:55.094Z,20.51
2023-06-30T01:01:41.992Z,20.52
2023-06-30T01:04:12.077Z,20.49
2023-06-30T01:06:41.305Z,20.40
2023-06-30T01:09:10.840Z,20.37
2023-06-30T01:11:38.590Z,20.47
2023-06-30T01:14:12.867Z,20.33
2023-06-30T01:16:43.417Z,20.25
2023-06-30T01:19:14.123Z,20.19
2023-06-30T01:21:41.885Z,20.23
2023-06-30T01:24:09.700Z,20.22
2023-06-30T01:26:37.529Z,20.31
2023-06-30T01:29:07.980Z,20.22
2023-06-30T01:31:37.611Z,20.28
2023-06-30T01:34:06.709Z,20.28
2023-06-30T01:36:35.693Z,20.09
2023-06-30T01:39:03.736Z,20.13
2023-06-30T01:41:32.595Z,20.11
2023-06-30T01:44:00.324Z,20.00
2023-06-30T01:46:28.206Z,19.93
2023-06-30T01:48:58.094Z,19.95
2023-06-30T01:51:27.302Z,19.97
2023-06-30T01:53:55.042Z,20.01
2023-06-30T01:56:22.833Z,20.03
2023-06-30T01:58:51.751Z,20.01
2023-06-30T02:01:19.545Z,20.02
2023-06-30T02:03:49.079Z,20.07
2023-06-30T02:06:16.941Z,20.15
2023-06-30T02:08:46.088Z,20.13
2023-06-30T02:11:13.892Z,20.12
2023-06-30T02:13:41.608Z,20.09
2023-06-30T02:16:09.415Z,20.10
2023-06-30T02:18:40.521Z,20.16
2023-06-30T02:21:08.459Z,20.15
2023-06-30T02:23:36.264Z,20.08
2023-06-30T02:26:05.473Z,20.07
2023-06-30T02:28:33.196Z,20.06
2023-06-30T02:31:01.109Z,19.98
2023-06-30T02:33:28.968Z,19.94
2023-06-30T02:35:58.880Z,19.98
2023-06-30T02:38:27.369Z,20.00
2023-06-30T02:40:56.482Z,20.03
2023-06-30T02:43:25.628Z,20.00
2023-06-30T02:45:53.525Z,20.04
2023-06-30T02:48:21.387Z,20.07
2023-06-30T02:50:49.639Z,20.03
2023-06-30T02:53:19.144Z,20.02
2023-06-30T02:55:48.058Z,20.01
2023-06-30T02:58:16.856Z,20.01
2023-06-30T03:00:46.320Z,19.93
2023-06-30T03:03:14.473Z,19.85
2023-06-30T03:05:43.789Z,19.72
2023-06-30T03:08:12.544Z,19.66
2023-06-30T03:10:41.610Z,19.57
2023-06-30T03:13:09.753Z,19.58
2023-06-30T03:15:37.585Z,19.56
2023-06-30T03:18:06.917Z,19.60
2023-06-30T03:20:34.908Z,19.58
2023-06-30T03:23:02.653Z,19.56
2023-06-30T03:25:30.428Z,19.49
2023-06-30T03:27:58.188Z,19.44
2023-06-30T03:30:25.978Z,19.38
2023-06-30T03:32:53.983Z,19.39
2023-06-30T03:35:24.910Z,19.36
2023-06-30T03:37:53.257Z,19.41
2023-06-30T03:40:21.500Z,19.41
2023-06-30T03:42:49.247Z,19.47
2023-06-30T03:45:17.021Z,19.50
2023-06-30T03:47:44.913Z,19.43
2023-06-30T03:50:12.793Z,19.34
2023-06-30T03:52:41.947Z,19.36
2023-06-30T03:55:09.982Z,19.37
2023-06-30T03:57:37.765Z,19.45
2023-06-30T04:00:06.087Z,19.52
2023-06-30T04:02:40.381Z,19.50
2023-06-30T04:05:08.671Z,19.54
2023-06-30T04:07:37.029Z,19.52
2023-06-30T04:10:06.622Z,19.47
2023-06-30T04:12:34.363Z,19.44
2023-06-30T04:15:02.883Z,19.40
2023-06-30T04:17:30.820Z,19.29
2023-06-30T04:19:59.487Z,19.27
2023-06-30T04:22:27.285Z,19.31
2023-06-30T04:24:55.274Z,19.33
2023-06-30T04:27:24.396Z,19.34
2023-06-30T04:29:52.194Z,19.22
2023-06-30T04:32:20.022Z,19.27
2023-06-30T04:34:47.898Z,19.18
2023-06-30T04:37:16.003Z,19.27
2023-06-30T04:39:44.353Z,19.23
2023-06-30T04:42:12.178Z,19.19
2023-06-30T04:44:41.463Z,19.18
2023-06-30T04:47:09.778Z,19.22
2023-06-30T04:49:38.047Z,19.27
2023-06-30T04:52:06.345Z,19.31
2023-06-30T04:54:34.295Z,19.24
2023-06-30T04:57:02.084Z,19.23
2023-06-30T04:59:29.923Z,19.27
2023-06-30T05:02:01.630Z,19.29
2023-06-30T05:04:29.562Z,19.28
2023-06-30T05:06:59.196Z,19.30
2023-06-30T05:09:27.247Z,19.30
2023-06-30T05:11:55.005Z,19.18
2023-06-30T05:14:22.786Z,19.13
2023-06-30T05:16:51.420Z,19.01
2023-06-30T05:19:20.684Z,18.92
2023-06-30T05:21:48.490Z,18.93
2023-06-30T05:24:16.408Z,18.91
2023-06-30T05:26:44.385Z,18.88
2023-06-30T05:29:14.650Z,18.96
2023-06-30T05:31:42.453Z,18.88
2023-06-30T05:34:16.420Z,18.75
2023-06-30T05:36:46.220Z,18.76
2023-06-30T05:39:15.461Z,18.68
2023-06-30T05:41:43.556Z,18.73
2023-06-30T05:44:11.461Z,18.73
2023-06-30T05:46:39.760Z,18.69
2023-06-30T05:49:07.761Z,18.69
2023-06-30T05:51:36.098Z,18.56
2023-06-30T05:54:05.248Z,18.66
2023-06-30T05:56:32.988Z,18.64
2023-06-30T05:59:00.810Z,18.51
2023-06-30T06:01:28.580Z,18.41
2023-06-30T06:03:57.338Z,18.39
2023-06-30T06:06:25.238Z,18.34
2023-06-30T06:08:53.059Z,18.31
2023-06-30T06:11:22.512Z,18.38
2023-06-30T06:13:50.701Z,18.46
2023-06-30T06:16:18.697Z,18.40
2023-06-30T06:18:48.801Z,18.45
2023-06-30T06:21:18.159Z,18.52
2023-06-30T06:23:45.947Z,18.61
2023-06-30T06:26:13.817Z,18.84
2023-06-30T06:28:42.982Z,18.94
2023-06-30T06:31:11.173Z,19.08
2023-06-30T06:33:39.658Z,19.20
2023-06-30T06:36:07.562Z,19.21
2023-06-30T06:38:35.299Z,19.12
2023-06-30T06:41:03.086Z,19.05
2023-06-30T06:43:30.879Z,19.05
2023-06-30T06:46:00.332Z,19.02
2023-06-30T06:48:28.844Z,19.10
2023-06-30T06:50:57.301Z,19.10
2023-06-30T06:53:26.952Z,18.93
2023-06-30T06:55:55.243Z,18.79
2023-06-30T06:58:23.649Z,18.77
2023-06-30T07:00:52.215Z,18.85
2023-06-30T07:03:21.677Z,18.95
2023-06-30T07:05:49.700Z,19.04
2023-06-30T07:08:17.996Z,19.11
2023-06-30T07:10:46.078Z,19.16
2023-06-30T07:13:14.220Z,19.28
2023-06-30T07:15:42.490Z,19.27
2023-06-30T07:18:10.572Z,19.28
2023-06-30T07:20:39.737Z,19.34
2023-06-30T07:23:07.780Z,19.30
2023-06-30T07:25:35.512Z,19.36
2023-06-30T07:28:04.021Z,19.43
2023-06-30T07:30:32.021Z,19.51
2023-06-30T07:32:59.995Z,19.61
2023-06-30T07:35:27.876Z,19.56
2023-06-30T07:37:57.116Z,19.66
2023-06-30T07:40:25.051Z,19.67
2023-06-30T07:42:54.590Z,19.81
2023-06-30T07:45:22.529Z,19.85
2023-06-30T07:47:50.548Z,19.84
2023-06-30T07:50:18.406Z,19.91
2023-06-30T07:52:46.577Z,19.70
2023-06-30T07:55:17.317Z,19.83
2023-06-30T07:57:45.666Z,19.93
2023-06-30T08:00:16.375Z,19.92
2023-06-30T08:02:44.414Z,19.94
2023-06-30T08:05:12.450Z,19.86
2023-06-30T08:07:49.266Z,19.91
2023-06-30T08:10:19.291Z,19.77
2023-06-30T08:12:47.375Z,19.67
2023-06-30T08:15:15.203Z,19.50
2023-06-30T08:17:53.582Z,19.36
2023-06-30T08:20:26.366Z,19.17
2023-06-30T08:22:54.838Z,19.10
2023-06-30T08:25:25.386Z,19.03
2023-06-30T08:27:53.343Z,18.91
2023-06-30T08:30:24.122Z,18.94
2023-06-30T08:32:53.021Z,18.93
2023-06-30T08:35:21.127Z,18.88
2023-06-30T08:37:53.047Z,18.82
2023-06-30T08:40:22.170Z,18.71
2023-06-30T08:42:51.426Z,18.80
2023-06-30T08:45:19.365Z,18.75
2023-06-30T08:47:47.304Z,18.79
2023-06-30T08:50:15.416Z,18.67
2023-06-30T08:52:43.135Z,18.62
2023-06-30T08:55:11.285Z,18.60
2023-06-30T08:57:39.402Z,18.61
2023-06-30T09:00:09.481Z,18.64
2023-06-30T09:02:37.469Z,18.71
2023-06-30T09:05:05.634Z,18.80
2023-06-30T09:07:35.766Z,18.64
2023-06-30T09:10:04.667Z,18.65
2023-06-30T09:12:32.556Z,18.63
2023-06-30T09:15:01.508Z,18.66
2023-06-30T09:17:31.002Z,18.77
2023-06-30T09:19:58.827Z,18.85
2023-06-30T09:22:53.174Z,18.78
2023-06-30T09:25:29.716Z,18.67
2023-06-30T09:27:57.783Z,18.58
2023-06-30T09:30:32.584Z,18.63
2023-06-30T09:33:01.821Z,18.75
2023-06-30T09:35:32.116Z,18.70
2023-06-30T09:37:59.967Z,18.81
2023-06-30T09:40:27.755Z,18.89
2023-06-30T09:42:55.631Z,18.88
2023-06-30T09:45:23.459Z,18.83
2023-06-30T09:47:54.889Z,18.99
2023-06-30T09:50:26.626Z,19.08
2023-06-30T09:52:54.475Z,19.14
2023-06-30T09:55:22.240Z,19.13
2023-06-30T09:57:50.194Z,19.06
2023-06-30T10:00:34.647Z,18.95
2023-06-30T10:03:04.935Z,18.89
2023-06-30T10:05:34.408Z,19.04
2023-06-30T10:08:03.156Z,19.09
2023-06-30T10:10:31.529Z,19.05
2023-06-30T10:13:00.399Z,19.04
2023-06-30T10:15:28.492Z,19.12
2023-06-30T10:17:56.947Z,19.04
2023-06-30T10:20:34.339Z,19.11
2023-06-30T10:23:12.041Z,19.00
2023-06-30T10:25:39.870Z,19.11
2023-06-30T10:28:08.543Z,19.13
2023-06-30T10:30:36.609Z,19.16
2023-06-30T10:33:04.684Z,19.15
2023-06-30T10:35:32.885Z,19.22
2023-06-30T10:38:00.634Z,19.43
2023-06-30T10:40:30.681Z,19.44
2023-06-30T10:42:58.832Z,19.38
2023-06-30T10:45:32.606Z,19.23
2023-06-30T10:48:00.646Z,19.13
2023-06-30T10:50:28.502Z,19.15
2023-06-30T10:52:56.275Z,19.22
2023-06-30T10:55:24.309Z,19.31
2023-06-30T10:57:54.073Z,19.35
2023-06-30T11:00:22.922Z,19.27
2023-06-30T11:02:51.610Z,19.34
2023-06-30T11:05:20.838Z,19.34
2023-06-30T11:07:49.064Z,19.46
2023-06-30T11:10:26.652Z,19.55
2023-06-30T11:12:56.394Z,19.75
2023-06-30T11:15:28.856Z,19.86
2023-06-30T11:18:01.102Z,19.92
2023-06-30T11:20:29.138Z,20.56
2023-06-30T11:22:57.100Z,20.95
2023-06-30T11:25:24.809Z,21.10
2023-06-30T11:27:52.671Z,20.85
2023-06-30T11:30:22.571Z,20.58
2023-06-30T11:32:50.450Z,20.66
2023-06-30T11:35:19.127Z,20.57
2023-06-30T11:37:50.011Z,20.38
2023-06-30T11:40:17.755Z,20.57
2023-06-30T11:42:46.561Z,20.48
2023-06-30T11:45:19.119Z,20.49
2023-06-30T11:47:49.774Z,20.70
2023-06-30T11:50:20.236Z,21.25
2023-06-30T11:52:49.223Z,21.91
2023-06-30T11:55:17.245Z,21.86
2023-06-30T11:57:47.604Z,21.90
2023-06-30T12:00:17.632Z,21.85
2023-06-30T12:02:59.472Z,22.01
2023-06-30T12:05:27.747Z,22.38
2023-06-30T12:07:58.167Z,22.48
2023-06-30T12:10:37.824Z,22.59
2023-06-30T12:13:07.782Z,22.65
2023-06-30T12:15:36.747Z,22.56
2023-06-30T12:18:06.596Z,22.82
2023-06-30T12:20:36.858Z,22.85
2023-06-30T12:23:05.331Z,22.73
2023-06-30T12:25:34.935Z,22.80
2023-06-30T12:28:04.246Z,22.50
2023-06-30T12:30:31.984Z,22.54
2023-06-30T12:33:00.373Z,22.79
2023-06-30T12:35:32.834Z,22.52
2023-06-30T12:38:00.604Z,22.75
2023-06-30T12:40:29.083Z,22.62
2023-06-30T12:42:56.830Z,22.59
2023-06-30T12:45:24.471Z,22.48
2023-06-30T12:47:52.206Z,22.43
2023-06-30T12:50:20.713Z,22.73
2023-06-30T12:52:50.152Z,22.74
2023-06-30T12:55:18.030Z,22.46
2023-06-30T12:57:45.892Z,22.65
2023-06-30T13:00:16.938Z,22.50
2023-06-30T13:02:44.774Z,22.67
2023-06-30T13:05:12.590Z,22.79
2023-06-30T13:07:40.529Z,23.11
2023-06-30T13:10:12.884Z,23.29
2023-06-30T13:12:42.196Z,23.20
2023-06-30T13:15:10.371Z,23.35
2023-06-30T13:17:38.408Z,23.19
2023-06-30T13:20:07.928Z,23.24
2023-06-30T13:22:36.454Z,23.34
2023-06-30T13:25:08.345Z,23.36
2023-06-30T13:27:37.665Z,23.51
2023-06-30T13:30:06.010Z,23.57
2023-06-30T13:32:33.784Z,23.46
2023-06-30T13:35:01.824Z,23.23
2023-06-30T13:37:29.633Z,23.21
2023-06-30T13:39:57.408Z,23.42
2023-06-30T13:42:25.483Z,23.34
2023-06-30T13:44:54.615Z,23.52
2023-06-30T13:47:22.387Z,23.45
2023-06-30T13:49:50.389Z,23.52
2023-06-30T13:52:18.216Z,23.49
2023-06-30T13:54:45.881Z,23.65
2023-06-30T13:57:13.628Z,23.73
2023-06-30T13:59:41.371Z,23.79
2023-06-30T14:02:10.424Z,23.68
2023-06-30T14:04:38.190Z,23.78
2023-06-30T14:07:06.244Z,23.52
2023-06-30T14:09:33.956Z,23.58
2023-06-30T14:12:02.059Z,23.66
2023-06-30T14:14:29.736Z,23.49
2023-06-30T14:16:57.429Z,23.35
2023-06-30T14:19:26.691Z,23.37
2023-06-30T14:21:54.708Z,23.20
2023-06-30T14:24:22.595Z,23.40
2023-06-30T14:26:50.228Z,23.40
2023-06-30T14:29:17.942Z,23.43
2023-06-30T14:31:45.997Z,23.35
2023-06-30T14:34:13.693Z,23.35
2023-06-30T14:36:42.823Z,23.36
2023-06-30T14:39:10.892Z,23.30
2023-06-30T14:41:42.081Z,23.19
2023-06-30T14:44:14.739Z,23.18
2023-06-30T14:46:43.058Z,23.38
2023-06-30T14:49:10.828Z,23.44
2023-06-30T14:51:38.634Z,23.11
2023-06-30T14:54:07.718Z,23.11
2023-06-30T14:56:35.475Z,22.86
2023-06-30T14:59:03.695Z,22.93
2023-06-30T15:01:31.465Z,22.88
2023-06-30T15:03:59.348Z,22.79
2023-06-30T15:06:27.126Z,22.69
2023-06-30T15:08:54.813Z,22.70
2023-06-30T15:11:23.818Z,22.88
2023-06-30T15:13:51.634Z,22.91
2023-06-30T15:16:19.404Z,22.76
2023-06-30T15:18:49.132Z,22.83
2023-06-30T15:21:17.002Z,22.86
2023-06-30T15:23:44.681Z,22.91
2023-06-30T15:26:12.603Z,22.69
2023-06-30T15:28:41.704Z,22.61
2023-06-30T15:31:09.489Z,22.59
2023-06-30T15:33:37.423Z,22.58
2023-06-30T15:36:05.526Z,22.45
2023-06-30T15:38:33.208Z,22.44
2023-06-30T15:41:03.804Z,22.31
2023-06-30T15:43:45.556Z,22.36
2023-06-30T15:46:13.280Z,22.41
2023-06-30T15:48:41.014Z,22.37
2023-06-30T15:51:11.314Z,22.31
2023-06-30T15:53:39.009Z,22.14
2023-06-30T15:56:06.714Z,22.00
2023-06-30T15:58:34.471Z,21.74
2023-06-30T16:01:03.674Z,21.67
2023-06-30T16:03:32.006Z,21.58
2023-06-30T16:05:59.919Z,21.52
2023-06-30T16:08:27.686Z,21.50
2023-06-30T16:10:55.355Z,21.48
2023-06-30T16:13:23.404Z,21.55
2023-06-30T16:15:51.322Z,21.62
2023-06-30T16:18:20.685Z,21.58
2023-06-30T16:20:48.462Z,21.56
2023-06-30T16:23:16.277Z,21.58
2023-06-30T16:25:43.980Z,21.53
2023-06-30T16:28:12.017Z,21.60
2023-06-30T16:30:39.935Z,21.58
2023-06-30T16:33:09.213Z,21.56
2023-06-30T16:35:38.394Z,21.54
2023-06-30T16:38:06.861Z,21.46
2023-06-30T16:40:34.667Z,21.37
2023-06-30T16:43:02.458Z,21.35
2023-06-30T16:45:30.187Z,21.28
2023-06-30T16:47:58.207Z,21.23
2023-06-30T16:50:25.952Z,21.17
2023-06-30T16:52:55.518Z,21.17
2023-06-30T16:55:23.448Z,21.18
2023-06-30T16:57:51.235Z,21.14
2023-06-30T17:00:20.864Z,21.09
2023-06-30T17:02:48.939Z,21.08
2023-06-30T17:05:16.755Z,21.03
2023-06-30T17:07:44.523Z,21.05
2023-06-30T17:10:13.636Z,21.00
2023-06-30T17:12:41.382Z,20.96
2023-06-30T17:15:09.838Z,20.90
2023-06-30T17:17:37.630Z,20.93
2023-06-30T17:20:07.146Z,20.91
2023-06-30T17:22:34.924Z,20.91
2023-06-30T17:25:05.250Z,20.87
2023-06-30T17:27:35.090Z,20.82
2023-06-30T17:30:03.148Z,20.87
2023-06-30T17:32:31.026Z,20.81
2023-06-30T17:34:58.854Z,20.75
2023-06-30T17:37:26.588Z,20.83
2023-06-30T17:39:54.393Z,20.76
2023-06-30T17:42:22.091Z,20.74
2023-06-30T17:44:51.263Z,20.67
2023-06-30T17:47:19.377Z,20.65
2023-06-30T17:49:48.271Z,20.66
2023-06-30T17:52:16.870Z,20.69
2023-06-30T17:54:44.702Z,20.64
2023-06-30T17:57:12.616Z,20.57
2023-06-30T17:59:40.450Z,20.54
2023-06-30T18:02:09.798Z,20.46
2023-06-30T18:04:37.778Z,20.39
2023-06-30T18:07:09.615Z,20.37
2023-06-30T18:09:38.585Z,20.36
2023-06-30T18:12:06.939Z,20.34
2023-06-30T18:14:34.897Z,20.34
2023-06-30T18:17:02.731Z,20.28
2023-06-30T18:19:32.227Z,20.22
2023-06-30T18:22:00.094Z,20.17
2023-06-30T18:24:27.967Z,20.09
2023-06-30T18:26:55.786Z,20.12
2023-06-30T18:29:24.859Z,20.15
2023-06-30T18:31:53.428Z,20.14
2023-06-30T18:34:21.682Z,20.07
2023-06-30T18:36:50.982Z,20.06
2023-06-30T18:39:18.865Z,20.02
2023-06-30T18:41:46.656Z,20.02
2023-06-30T18:44:14.532Z,20.07
2023-06-30T18:46:42.468Z,20.04
2023-06-30T18:49:12.441Z,20.07
2023-06-30T18:51:43.080Z,20.02
2023-06-30T18:54:12.526Z,20.00
2023-06-30T18:56:40.866Z,20.02
2023-06-30T18:59:08.722Z,19.91
2023-06-30T19:01:38.954Z,19.92
2023-06-30T19:04:07.024Z,19.85
2023-06-30T19:06:35.238Z,19.83
2023-06-30T19:09:04.137Z,19.81
2023-06-30T19:11:33.333Z,19.79
2023-06-30T19:14:01.426Z,19.77
2023-06-30T19:16:29.392Z,19.77
2023-06-30T19:18:59.384Z,19.76
2023-06-30T19:21:27.245Z,19.76
2023-06-30T19:23:55.259Z,19.76
2023-06-30T19:26:23.086Z,19.76
2023-06-30T19:28:52.273Z,19.80
2023-06-30T19:31:21.960Z,19.77
2023-06-30T19:33:49.885Z,19.77
2023-06-30T19:36:17.680Z,19.74
2023-06-30T19:38:45.793Z,19.74
2023-06-30T19:41:13.845Z,19.74
2023-06-30T19:43:41.677Z,19.71
2023-06-30T19:46:11.961Z,19.68
2023-06-30T19:48:39.792Z,19.65
2023-06-30T19:51:09.576Z,19.60
2023-06-30T19:53:37.627Z,19.58
2023-06-30T19:56:05.697Z,19.57
2023-06-30T19:58:33.464Z,19.53
2023-06-30T20:01:01.254Z,19.52
2023-06-30T20:03:30.628Z,19.49
2023-06-30T20:05:58.533Z,19.46
2023-06-30T20:08:26.317Z,19.43
2023-06-30T20:10:54.091Z,19.40
2023-06-30T20:13:22.474Z,19.38
2023-06-30T20:15:50.315Z,19.36
2023-06-30T20:18:18.730Z,19.31
2023-06-30T20:20:48.219Z,19.29
2023-06-30T20:23:16.119Z,19.26
2023-06-30T20:25:43.943Z,19.26
2023-06-30T20:28:11.842Z,19.22
2023-06-30T20:30:39.653Z,19.20
2023-06-30T20:33:07.640Z,19.16
2023-06-30T20:35:36.942Z,19.12
2023-06-30T20:38:06.253Z,19.09
2023-06-30T20:40:34.382Z,19.00
2023-06-30T20:43:02.256Z,18.98
2023-06-30T20:45:31.652Z,18.96
2023-06-30T20:47:59.748Z,18.93
2023-06-30T20:50:28.800Z,18.93
2023-06-30T20:52:56.983Z,18.90
2023-06-30T20:55:26.156Z,18.88
2023-06-30T20:57:54.064Z,18.87
2023-06-30T21:00:22.000Z,18.85
2023-06-30T21:02:49.880Z,18.82
2023-06-30T21:05:17.734Z,18.77
2023-06-30T21:07:45.562Z,18.69
2023-06-30T21:10:13.621Z,18.62
2023-06-30T21:12:42.765Z,18.63
2023-06-30T21:15:13.599Z,18.66
2023-06-30T21:17:41.416Z,18.64
2023-06-30T21:20:09.934Z,18.59
2023-06-30T21:22:37.740Z,18.50
2023-06-30T21:25:06.663Z,18.52
2023-06-30T21:27:34.492Z,18.48
2023-06-30T21:30:03.712Z,18.47
2023-06-30T21:32:31.482Z,18.37
2023-06-30T21:34:59.266Z,18.33
2023-06-30T21:37:27.022Z,18.31
2023-06-30T21:39:54.784Z,18.25
2023-06-30T21:42:22.595Z,18.23
2023-06-30T21:44:50.380Z,18.22
2023-06-30T21:47:19.561Z,18.13
2023-06-30T21:49:47.257Z,18.16
2023-06-30T21:52:15.382Z,18.22
2023-06-30T21:54:48.569Z,18.25
2023-06-30T21:57:16.820Z,18.24
2023-06-30T21:59:44.947Z,18.22
2023-06-30T22:02:12.917Z,18.21
2023-06-30T22:04:42.208Z,18.20
2023-06-30T22:07:10.196Z,18.17
2023-06-30T22:09:38.297Z,18.01
2023-06-30T22:12:07.642Z,18.00
2023-06-30T22:14:36.010Z,17.89
2023-06-30T22:17:03.884Z,17.72
2023-06-30T22:19:35.005Z,17.76
2023-06-30T22:22:06.085Z,17.72
2023-06-30T22:24:33.879Z,17.70
2023-06-30T22:27:01.602Z,17.59
2023-06-30T22:29:29.410Z,17.59
2023-06-30T22:31:57.189Z,17.65
2023-06-30T22:34:25.848Z,17.70
2023-06-30T22:36:53.641Z,17.73
2023-06-30T22:39:22.737Z,17.78
2023-06-30T22:41:50.557Z,17.75
2023-06-30T22:44:18.294Z,17.71
2023-06-30T22:46:46.184Z,17.77
2023-06-30T22:49:14.116Z,17.74
2023-06-30T22:51:42.026Z,17.65
2023-06-30T22:54:09.769Z,17.57
2023-06-30T22:56:38.968Z,17.65
2023-06-30T22:59:06.730Z,17.66
2023-06-30T23:01:34.553Z,17.67
2023-06-30T23:04:02.490Z,17.63
2023-06-30T23:06:30.320Z,17.62
2023-06-30T23:08:58.130Z,17.66
2023-06-30T23:11:25.966Z,17.69
2023-06-30T23:13:55.070Z,17.73
2023-06-30T23:16:23.026Z,17.74
2023-06-30T23:18:50.952Z,17.67
2023-06-30T23:21:19.161Z,17.56
2023-06-30T23:23:47.402Z,17.53
2023-06-30T23:26:15.891Z,17.56
2023-06-30T23:28:46.632Z,17.59
2023-06-30T23:31:18.118Z,17.66
2023-06-30T23:33:46.030Z,17.65
2023-06-30T23:36:13.775Z,17.65
2023-06-30T23:38:41.593Z,17.61
2023-06-30T23:41:10.216Z,17.64
2023-06-30T23:43:38.122Z,17.64
2023-06-30T23:46:06.004Z,17.59
2023-06-30T23:48:35.251Z,17.55
2023-06-30T23:51:03.028Z,17.59
2023-06-30T23:53:30.798Z,17.63
2023-06-30T23:55:58.600Z,17.62
2023-06-30T23:58:26.406Z,17.61
